Time;durP1;ratioP1;P1;durP2;ratioP2;P2;SDS_P1;SDS_P2;PMS_P1;PMS_P2;Temp;Humidity;BMP_temperature;BMP_pressure;BME280_temperature;BME280_humidity;BME280_pressure;Samples;Min_cycle;Max_cycle;Signal;HPM_P1;HPM_P2
2022/04/30 03:01:58;;;;;;;1.97;1.87;;;14.00;74.50;;;;;;5474906;23;20543;-67
2022/04/30 03:04:25;;;;;;;1.60;1.50;;;13.90;74.70;;;;;;4994513;28;20453;-67
2022/04/30 03:06:51;;;;;;;1.70;1.60;;;13.90;74.80;;;;;;4994756;28;20555;-68
2022/04/30 03:09:18;;;;;;;1.87;1.77;;;13.90;75.10;;;;;;4994463;28;20452;-67
2022/04/30 03:11:45;;;;;;;1.70;1.60;;;13.90;75.30;;;;;;4994611;28;20484;-68
2022/04/30 03:14:13;;;;;;;1.90;1.80;;;13.90;75.10;;;;;;5113235;23;20531;-76
2022/04/30 03:22:10;;;;;;;2.13;2.03;;;14.00;75.40;;;;;;4995018;28;20412;-76
2022/04/30 03:24:37;;;;;;;1.90;1.80;;;14.00;75.30;;;;;;4994566;28;20531;-76
2022/04/30 03:27:04;;;;;;;1.90;1.80;;;13.90;75.90;;;;;;4994640;28;20474;-76
2022/04/30 03:29:31;;;;;;;2.07;1.97;;;13.70;76.30;;;;;;4994528;28;20532;-76
2022/04/30 03:31:58;;;;;;;2.03;1.93;;;13.70;76.70;;;;;;4994511;28;20445;-76
2022/04/30 03:34:28;;;;;;;2.27;2.17;;;13.60;77.10;;;;;;4994223;28;20531;-76
2022/04/30 03:36:55;;;;;;;2.00;1.90;;;13.50;77.30;;;;;;4994128;28;21140;-76
2022/04/30 03:39:21;;;;;;;2.03;1.93;;;13.40;78.00;;;;;;4994050;28;20560;-76
2022/04/30 03:41:48;;;;;;;2.03;1.93;;;13.40;77.90;;;;;;4994355;28;20449;-76
2022/04/30 03:44:15;;;;;;;2.50;2.40;;;13.40;77.90;;;;;;4994273;28;20524;-76
2022/04/30 03:46:41;;;;;;;2.10;2.00;;;13.50;77.70;;;;;;4994304;28;20479;-76
2022/04/30 03:49:08;;;;;;;2.10;2.00;;;13.50;77.50;;;;;;4994236;28;20504;-76
2022/04/30 03:51:36;;;;;;;2.20;2.10;;;13.50;77.70;;;;;;4994252;28;20507;-76
2022/04/30 03:54:03;;;;;;;2.20;2.10;;;13.50;77.50;;;;;;4994132;28;20469;-76
2022/04/30 03:56:31;;;;;;;2.23;2.13;;;13.50;77.60;;;;;;4994165;28;20445;-76
2022/04/30 03:58:57;;;;;;;2.87;2.77;;;13.50;77.40;;;;;;4994014;28;20520;-76
2022/04/30 04:01:24;;;;;;;2.30;2.20;;;13.40;77.70;;;;;;4994062;28;20445;-76
2022/04/30 04:03:52;;;;;;;2.40;2.30;;;13.20;78.20;;;;;;4993996;28;20524;-75
2022/04/30 04:06:19;;;;;;;2.40;2.30;;;13.10;78.60;;;;;;4998047;28;20479;-75
2022/04/30 04:08:50;;;;;;;2.57;2.47;;;13.10;78.70;;;;;;5004210;28;20452;-76
2022/04/30 04:11:17;;;;;;;2.37;2.27;;;13.10;78.70;;;;;;5004882;28;20429;-76
2022/04/30 04:19:12;;;;;;;2.30;2.20;;;13.20;79.00;;;;;;5003845;28;20463;-76
2022/04/30 04:21:39;;;;;;;2.20;2.10;;;13.20;79.10;;;;;;5003969;28;20455;-76
2022/04/30 04:26:53;;;;;;;2.27;2.17;;;13.10;79.40;;;;;;5003701;28;20860;-76
2022/04/30 04:29:19;;;;;;;2.90;2.70;;;13.10;79.70;;;;;;5004384;28;20803;-76
2022/04/30 04:31:46;;;;;;;2.50;2.40;;;13.20;79.90;;;;;;5004316;28;20449;-76
2022/04/30 04:34:13;;;;;;;2.43;2.33;;;13.10;80.20;;;;;;5003945;28;20464;-76
2022/04/30 04:36:40;;;;;;;2.30;2.20;;;13.20;79.90;;;;;;5004095;28;20445;-75
2022/04/30 04:39:12;;;;;;;2.50;2.40;;;13.30;79.80;;;;;;5003790;28;20560;-76
2022/04/30 04:41:39;;;;;;;1.97;1.87;;;13.30;79.70;;;;;;5003485;28;20499;-76
2022/04/30 04:44:06;;;;;;;2.23;2.13;;;13.30;79.70;;;;;;5003199;28;20992;-75
2022/04/30 04:46:33;;;;;;;2.47;2.37;;;13.20;79.80;;;;;;5006419;28;20465;-76
2022/04/30 04:49:00;;;;;;;2.30;2.20;;;13.30;79.90;;;;;;5007273;28;20460;-76
2022/04/30 04:51:28;;;;;;;2.40;2.30;;;13.20;79.90;;;;;;5007556;28;20472;-76
2022/04/30 04:53:55;;;;;;;2.60;2.50;;;13.30;80.10;;;;;;5007347;28;20480;-75
2022/04/30 04:56:24;;;;;;;2.60;2.50;;;13.40;80.00;;;;;;5007637;28;20451;-77
2022/04/30 04:58:50;;;;;;;2.63;2.43;;;13.60;79.80;;;;;;5007952;28;20480;-76
2022/04/30 05:01:17;;;;;;;2.40;2.30;;;13.60;79.40;;;;;;5008018;28;20456;-75
2022/04/30 05:03:44;;;;;;;2.50;2.40;;;13.60;79.20;;;;;;5007560;28;20467;-76
2022/04/30 05:06:11;;;;;;;2.33;2.23;;;13.50;79.00;;;;;;5000767;28;20445;-76
2022/04/30 05:08:38;;;;;;;2.43;2.33;;;13.40;79.80;;;;;;4996956;28;20453;-76
2022/04/30 05:11:04;;;;;;;2.57;2.47;;;13.40;79.80;;;;;;4997432;28;20444;-76
2022/04/30 05:13:32;;;;;;;2.60;2.50;;;13.40;79.70;;;;;;4996859;28;20464;-76
2022/04/30 05:15:59;;;;;;;2.70;2.60;;;13.40;80.20;;;;;;4997135;28;20432;-76
2022/04/30 05:18:26;;;;;;;2.30;2.20;;;13.50;80.10;;;;;;4996944;28;20516;-76
2022/04/30 05:20:53;;;;;;;2.10;2.00;;;13.60;79.40;;;;;;4996714;28;20810;-76
2022/04/30 05:23:20;;;;;;;2.57;2.37;;;13.60;79.40;;;;;;4996894;28;20468;-76
2022/04/30 05:25:47;;;;;;;2.30;2.20;;;13.70;79.20;;;;;;4996873;28;20487;-76
2022/04/30 05:28:14;;;;;;;2.57;2.47;;;13.70;78.60;;;;;;4996867;28;20562;-76
2022/04/30 05:30:42;;;;;;;2.53;2.43;;;13.60;79.90;;;;;;4996818;28;20544;-76
2022/04/30 05:33:08;;;;;;;2.53;2.33;;;13.70;79.90;;;;;;4996670;28;20500;-76
2022/04/30 05:35:35;;;;;;;2.23;2.13;;;13.90;79.80;;;;;;5006166;28;20503;-76
2022/04/30 05:38:02;;;;;;;2.00;1.90;;;14.00;79.30;;;;;;5003699;28;20519;-76
2022/04/30 05:40:28;;;;;;;2.70;2.60;;;14.00;79.00;;;;;;4996551;28;20908;-76
2022/04/30 05:42:55;;;;;;;2.43;2.33;;;14.10;79.00;;;;;;4996609;28;20500;-76
2022/04/30 05:45:22;;;;;;;2.20;2.10;;;14.10;79.10;;;;;;5001638;28;20508;-76
2022/04/30 05:47:50;;;;;;;2.27;2.17;;;14.20;79.20;;;;;;5007333;28;20459;-76
2022/04/30 05:50:17;;;;;;;2.23;2.13;;;14.20;79.00;;;;;;4998207;28;20456;-76
2022/04/30 05:52:43;;;;;;;2.33;2.23;;;14.20;79.00;;;;;;4996376;28;20449;-76
2022/04/30 05:55:11;;;;;;;2.20;2.10;;;14.30;79.20;;;;;;4996320;28;20465;-76
2022/04/30 05:57:37;;;;;;;2.03;1.93;;;14.40;78.90;;;;;;4996460;28;20479;-76
2022/04/30 06:00:05;;;;;;;2.67;2.57;;;14.30;79.10;;;;;;4996524;28;20591;-74
2022/04/30 06:02:32;;;;;;;2.07;1.97;;;14.30;79.00;;;;;;4996342;28;20478;-76
2022/04/30 06:05:00;;;;;;;2.40;2.30;;;14.20;78.70;;;;;;4996181;28;20469;-75
2022/04/30 06:07:26;;;;;;;2.07;1.97;;;14.30;78.70;;;;;;4996369;28;20956;-76
2022/04/30 06:09:53;;;;;;;2.27;2.17;;;14.40;78.80;;;;;;4996121;28;20853;-76
2022/04/30 06:12:21;;;;;;;2.07;1.97;;;14.40;78.70;;;;;;4996022;28;20445;-76
2022/04/30 06:14:48;;;;;;;2.00;1.90;;;14.50;78.60;;;;;;4995638;28;21010;-75
2022/04/30 06:17:15;;;;;;;2.23;2.13;;;14.40;78.90;;;;;;4995939;28;20453;-74
2022/04/30 06:19:41;;;;;;;1.90;1.80;;;14.40;78.80;;;;;;4995978;28;20477;-75
2022/04/30 06:22:10;;;;;;;2.23;2.13;;;14.60;78.60;;;;;;4995967;28;20449;-76
2022/04/30 06:24:36;;;;;;;1.90;1.80;;;14.70;78.00;;;;;;4995985;28;20527;-76
2022/04/30 06:27:04;;;;;;;2.30;2.20;;;14.80;77.50;;;;;;4995641;28;20457;-76
2022/04/30 06:29:30;;;;;;;2.20;2.10;;;14.80;77.80;;;;;;4996301;28;20933;-75
2022/04/30 06:31:58;;;;;;;2.10;2.00;;;14.80;76.80;;;;;;4996515;28;20823;-75
2022/04/30 06:34:25;;;;;;;1.83;1.73;;;14.90;77.40;;;;;;4995935;28;20899;-76
2022/04/30 06:36:51;;;;;;;2.20;2.10;;;14.90;77.10;;;;;;4995570;28;20871;-76
2022/04/30 06:39:19;;;;;;;2.40;2.30;;;14.90;77.60;;;;;;4995161;28;21004;-76
2022/04/30 06:41:46;;;;;;;1.90;1.80;;;15.00;77.90;;;;;;4995529;28;20507;-76
2022/04/30 06:44:13;;;;;;;1.90;1.80;;;15.00;77.50;;;;;;4995374;28;20560;-76
2022/04/30 06:46:39;;;;;;;2.00;1.90;;;15.00;77.30;;;;;;4995472;28;20449;-76
2022/04/30 06:49:06;;;;;;;1.70;1.60;;;15.00;77.80;;;;;;4995394;28;20798;-76
2022/04/30 06:51:33;;;;;;;1.73;1.63;;;15.10;77.00;;;;;;4995330;28;20465;-76
2022/04/30 06:59:31;;;;;;;2.00;1.90;;;15.20;76.30;;;;;;4995180;28;20465;-76
2022/04/30 07:02:01;;;;;;;1.90;1.80;;;15.30;76.10;;;;;;4995312;28;20457;-77
2022/04/30 07:04:29;;;;;;;1.83;1.73;;;15.40;76.10;;;;;;4995265;28;20473;-75
2022/04/30 07:06:56;;;;;;;1.70;1.60;;;15.40;76.30;;;;;;4995147;28;20539;-75
2022/04/30 07:09:23;;;;;;;1.90;1.80;;;15.40;76.10;;;;;;4994438;28;20499;-75
2022/04/30 07:11:51;;;;;;;2.00;1.90;;;15.40;75.60;;;;;;4994972;28;20505;-75
2022/04/30 07:14:18;;;;;;;1.97;1.87;;;15.30;76.00;;;;;;4994707;28;20483;-72
2022/04/30 07:16:45;;;;;;;2.07;1.97;;;15.30;76.00;;;;;;4995052;28;20457;-74
2022/04/30 07:19:11;;;;;;;1.90;1.80;;;15.20;76.20;;;;;;4994696;28;20527;-74
2022/04/30 07:21:38;;;;;;;1.60;1.60;;;15.00;76.50;;;;;;4994754;28;20457;-73
2022/04/30 07:24:05;;;;;;;1.97;1.87;;;14.90;77.00;;;;;;4994670;28;20524;-74
2022/04/30 07:26:32;;;;;;;1.70;1.60;;;15.00;77.50;;;;;;4994698;28;20865;-74
2022/04/30 07:29:00;;;;;;;2.00;1.90;;;15.00;77.90;;;;;;4994638;28;20503;-75
2022/04/30 07:31:27;;;;;;;2.00;1.90;;;15.00;77.80;;;;;;4994349;28;20945;-75
2022/04/30 07:33:54;;;;;;;1.80;1.70;;;14.90;77.50;;;;;;4994564;28;20473;-72
2022/04/30 07:36:21;;;;;;;2.17;2.07;;;14.90;77.30;;;;;;4994565;28;20457;-73
2022/04/30 07:38:47;;;;;;;1.80;1.70;;;14.90;77.20;;;;;;4994533;28;20453;-75
2022/04/30 07:41:14;;;;;;;1.93;1.83;;;14.90;77.90;;;;;;4994573;28;20484;-75
2022/04/30 07:43:41;;;;;;;1.70;1.63;;;14.80;78.00;;;;;;4994353;28;20485;-75
2022/04/30 07:46:09;;;;;;;1.93;1.83;;;14.80;78.30;;;;;;4994354;28;20457;-75
2022/04/30 07:48:36;;;;;;;1.70;1.60;;;14.80;77.90;;;;;;4994420;28;20453;-76
2022/04/30 07:51:02;;;;;;;1.87;1.77;;;14.80;78.20;;;;;;4994306;28;20449;-76
2022/04/30 07:53:29;;;;;;;1.70;1.67;;;14.80;78.40;;;;;;4993917;28;20473;-76
2022/04/30 07:55:56;;;;;;;1.90;1.80;;;14.80;78.50;;;;;;4994243;28;20507;-76
2022/04/30 07:58:25;;;;;;;1.90;1.80;;;14.80;78.70;;;;;;4994239;28;20452;-76
2022/04/30 08:00:51;;;;;;;1.70;1.60;;;14.90;78.80;;;;;;4994083;28;20529;-76
2022/04/30 08:03:20;;;;;;;2.20;2.10;;;15.00;78.50;;;;;;4994062;28;20511;-76
2022/04/30 08:05:46;;;;;;;1.90;1.80;;;15.00;78.00;;;;;;4994088;28;20916;-76
2022/04/30 08:08:13;;;;;;;1.90;1.80;;;14.90;77.50;;;;;;4993737;28;20503;-76
2022/04/30 08:10:40;;;;;;;1.63;1.53;;;14.80;78.00;;;;;;4993795;28;20870;-76
2022/04/30 08:13:07;;;;;;;1.40;1.40;;;14.80;77.90;;;;;;4993616;28;20867;-76
2022/04/30 08:15:34;;;;;;;1.30;1.30;;;14.90;77.90;;;;;;4993880;28;20910;-76
2022/04/30 08:18:00;;;;;;;1.50;1.43;;;14.80;77.20;;;;;;4993913;28;20796;-76
2022/04/30 08:20:28;;;;;;;1.70;1.60;;;14.60;77.60;;;;;;4995983;28;20483;-76
2022/04/30 08:22:55;;;;;;;1.60;1.50;;;14.50;78.10;;;;;;4998070;28;20495;-76
2022/04/30 08:25:22;;;;;;;2.17;2.07;;;14.50;78.00;;;;;;4998008;28;20481;-76
2022/04/30 08:27:48;;;;;;;1.50;1.40;;;14.40;78.10;;;;;;4997637;28;20833;-76
2022/04/30 08:30:15;;;;;;;1.83;1.73;;;14.40;78.40;;;;;;4997919;28;20449;-76
2022/04/30 08:32:42;;;;;;;1.40;1.40;;;14.30;78.40;;;;;;4997578;28;20453;-76
2022/04/30 08:35:09;;;;;;;1.20;1.20;;;14.20;78.60;;;;;;4997685;28;20508;-76
2022/04/30 08:37:37;;;;;;;1.17;1.17;;;14.20;78.70;;;;;;4997767;28;20441;-76
2022/04/30 08:40:04;;;;;;;1.67;1.57;;;14.10;78.80;;;;;;4997694;28;20477;-76
2022/04/30 08:42:31;;;;;;;1.20;1.20;;;14.10;78.90;;;;;;4997415;28;20536;-75
2022/04/30 08:44:58;;;;;;;1.33;1.33;;;14.10;79.00;;;;;;4997632;28;20476;-75
2022/04/30 08:47:25;;;;;;;1.27;1.27;;;14.20;78.90;;;;;;4997771;28;20444;-74
2022/04/30 08:49:53;;;;;;;1.37;1.37;;;14.20;78.90;;;;;;4997655;28;20444;-73
2022/04/30 08:52:20;;;;;;;1.20;1.20;;;14.20;79.30;;;;;;4998293;28;20472;-73
2022/04/30 08:54:47;;;;;;;1.30;1.30;;;14.20;79.30;;;;;;4997725;28;20847;-73
2022/04/30 08:57:15;;;;;;;1.50;1.40;;;14.20;79.30;;;;;;4997592;28;21005;-73
2022/04/30 08:59:42;;;;;;;1.30;1.20;;;14.10;79.20;;;;;;4997480;28;21023;-74
2022/04/30 09:02:11;;;;;;;1.40;1.40;;;14.10;79.40;;;;;;4997644;28;20503;-74
2022/04/30 09:04:44;;;;;;;1.50;1.40;;;14.00;79.40;;;;;;4997765;28;21047;-73
2022/04/30 09:07:15;;;;;;;1.10;1.00;;;14.10;79.80;;;;;;4997609;28;20539;-73
2022/04/30 09:09:42;;;;;;;1.60;1.50;;;14.10;79.70;;;;;;4997616;28;20528;-73
2022/04/30 09:12:13;;;;;;;1.60;1.50;;;14.20;79.80;;;;;;4997346;28;20452;-73
2022/04/30 09:14:41;;;;;;;1.30;1.20;;;14.30;80.00;;;;;;4998870;28;20495;-72
2022/04/30 09:17:09;;;;;;;1.23;1.17;;;14.30;79.60;;;;;;4997289;28;20921;-72
2022/04/30 09:19:46;;;;;;;1.30;1.30;;;14.30;79.50;;;;;;4997453;28;20544;-73
2022/04/30 09:22:14;;;;;;;1.10;1.10;;;14.40;80.20;;;;;;4998518;28;20796;-73
2022/04/30 09:24:49;;;;;;;1.10;1.10;;;14.30;79.00;;;;;;4997884;28;20500;-73
2022/04/30 09:27:17;;;;;;;1.10;1.10;;;14.30;79.20;;;;;;4997490;28;20448;-72
2022/04/30 09:29:44;;;;;;;1.23;1.13;;;14.30;79.00;;;;;;4996836;28;20444;-68
2022/04/30 09:32:17;;;;;;;0.93;0.93;;;14.10;80.30;;;;;;4996201;28;20457;-70
2022/04/30 09:37:46;;;;;;;1.07;1.07;;;14.30;79.60;;;;;;4997060;28;20420;-70
2022/04/30 09:40:25;;;;;;;0.90;0.90;;;14.50;79.40;;;;;;4996698;28;20472;-71
2022/04/30 09:42:53;;;;;;;2.03;1.47;;;14.50;78.40;;;;;;4996747;28;20544;-71
2022/04/30 09:45:24;;;;;;;1.10;1.10;;;14.50;79.20;;;;;;4996454;28;20476;-69
2022/04/30 09:47:52;;;;;;;1.20;1.10;;;14.60;80.20;;;;;;4996439;28;20507;-72
2022/04/30 09:55:52;;;;;;;1.00;1.00;;;15.00;78.30;;;;;;4996861;28;20409;-71
2022/04/30 09:58:23;;;;;;;1.00;1.00;;;15.00;78.30;;;;;;4996131;28;21007;-70
2022/04/30 10:00:55;;;;;;;1.00;1.00;;;15.10;79.10;;;;;;4996266;28;20555;-71
2022/04/30 10:03:27;;;;;;;1.00;1.00;;;15.10;77.10;;;;;;4996752;28;20555;-71
2022/04/30 10:06:00;;;;;;;0.90;0.90;;;15.10;77.70;;;;;;4996252;28;20433;-71
2022/04/30 10:08:29;;;;;;;1.27;1.27;;;15.30;78.20;;;;;;4996247;28;20537;-71
2022/04/30 10:11:07;;;;;;;1.00;1.00;;;15.50;77.10;;;;;;4996073;28;20524;-70
2022/04/30 10:13:47;;;;;;;0.90;0.90;;;15.70;77.10;;;;;;4995868;28;20480;-70
2022/04/30 10:16:19;;;;;;;0.90;0.90;;;15.80;75.90;;;;;;4996237;28;20437;-73
2022/04/30 10:18:53;;;;;;;1.00;1.00;;;15.80;76.20;;;;;;4996027;28;20492;-74
2022/04/30 10:21:20;;;;;;;1.00;1.00;;;16.10;76.10;;;;;;4995725;28;20501;-74
2022/04/30 10:23:47;;;;;;;0.90;0.90;;;16.20;75.40;;;;;;4995805;28;20477;-73
2022/04/30 10:26:14;;;;;;;0.87;0.87;;;16.30;75.80;;;;;;4995838;28;20445;-73
2022/04/30 10:28:42;;;;;;;0.70;0.70;;;16.30;75.30;;;;;;4995861;28;20456;-74
2022/04/30 10:31:10;;;;;;;1.40;1.30;;;16.40;74.90;;;;;;4996012;28;20492;-73
2022/04/30 10:33:47;;;;;;;1.00;1.00;;;16.50;73.50;;;;;;4995403;28;20908;-74
2022/04/30 10:36:14;;;;;;;0.70;0.70;;;16.60;74.60;;;;;;4995778;28;20503;-75
2022/04/30 10:38:42;;;;;;;0.70;0.70;;;16.60;74.10;;;;;;4996118;28;20504;-75
2022/04/30 10:41:10;;;;;;;0.80;0.80;;;16.60;72.60;;;;;;4996772;28;20481;-74
2022/04/30 10:43:38;;;;;;;0.70;0.70;;;16.60;72.10;;;;;;4994365;28;20841;-73
2022/04/30 10:46:18;;;;;;;0.67;0.67;;;16.80;71.50;;;;;;4995541;28;20445;-71
2022/04/30 10:48:45;;;;;;;0.63;0.63;;;17.10;72.50;;;;;;4996260;28;20450;-72
2022/04/30 10:51:14;;;;;;;0.60;0.60;;;17.20;73.00;;;;;;4995454;28;20499;-73
2022/04/30 10:53:42;;;;;;;0.70;0.70;;;17.30;70.50;;;;;;4995383;28;20468;-73
2022/04/30 10:56:10;;;;;;;0.80;0.80;;;17.50;72.10;;;;;;4995550;28;20449;-75
2022/04/30 10:58:38;;;;;;;0.60;0.60;;;17.70;71.50;;;;;;4995943;28;20445;-75
2022/04/30 11:01:13;;;;;;;0.67;0.60;;;17.60;69.90;;;;;;4996396;28;20508;-76
2022/04/30 11:03:42;;;;;;;0.70;0.70;;;17.50;68.60;;;;;;4996730;28;20465;-76
2022/04/30 11:06:12;;;;;;;0.70;0.60;;;17.50;68.70;;;;;;4996696;28;20492;-76
2022/04/30 11:08:38;;;;;;;0.70;0.70;;;17.60;69.00;;;;;;4995731;28;20461;-75
2022/04/30 11:11:05;;;;;;;0.70;0.70;;;17.70;68.00;;;;;;4996192;28;20449;-75
2022/04/30 11:13:32;;;;;;;0.70;0.70;;;17.60;69.30;;;;;;4995911;28;20465;-76
2022/04/30 11:15:59;;;;;;;0.63;0.57;;;17.50;68.00;;;;;;4996956;28;20791;-76
2022/04/30 11:18:28;;;;;;;0.60;0.60;;;17.60;68.20;;;;;;4996822;28;20449;-73
2022/04/30 11:20:59;;;;;;;0.60;0.60;;;17.50;67.80;;;;;;4995622;28;20484;-76
2022/04/30 11:23:25;;;;;;;0.70;0.70;;;17.30;68.30;;;;;;4994743;28;20477;-76
2022/04/30 11:25:52;;;;;;;0.70;0.67;;;17.20;69.00;;;;;;4994767;28;20527;-76
2022/04/30 11:28:19;;;;;;;0.70;0.70;;;17.10;68.20;;;;;;4994741;28;20449;-76
2022/04/30 11:30:46;;;;;;;0.60;0.60;;;17.10;68.80;;;;;;4994636;28;20500;-75
2022/04/30 11:33:13;;;;;;;0.60;0.60;;;17.00;68.50;;;;;;4994501;28;20499;-76
2022/04/30 11:35:41;;;;;;;0.67;0.60;;;17.00;69.00;;;;;;4994701;28;20856;-76
2022/04/30 11:38:10;;;;;;;0.60;0.60;;;17.00;69.30;;;;;;4994580;28;20457;-76
2022/04/30 11:40:41;;;;;;;0.70;0.70;;;17.10;71.00;;;;;;4994491;28;20527;-76
2022/04/30 11:43:07;;;;;;;0.70;0.60;;;17.20;71.20;;;;;;4994473;28;20546;-76
2022/04/30 11:45:34;;;;;;;0.80;0.60;;;17.40;70.30;;;;;;4994419;28;20449;-76
2022/04/30 11:48:03;;;;;;;0.80;0.70;;;17.40;68.30;;;;;;4994337;28;20457;-76
2022/04/30 11:50:30;;;;;;;0.60;0.60;;;17.40;67.30;;;;;;4994395;28;20454;-75
2022/04/30 11:52:59;;;;;;;0.60;0.60;;;17.30;65.50;;;;;;4994004;28;20869;-74
2022/04/30 11:55:26;;;;;;;0.70;0.60;;;17.50;66.30;;;;;;4993969;28;20457;-75
2022/04/30 11:57:53;;;;;;;0.60;0.60;;;17.60;67.60;;;;;;4994061;28;20806;-75
2022/04/30 12:00:20;;;;;;;0.80;0.80;;;17.70;66.70;;;;;;4993921;28;20865;-75
2022/04/30 12:02:48;;;;;;;0.70;0.67;;;17.50;67.20;;;;;;4994051;28;20449;-74
2022/04/30 12:05:14;;;;;;;0.60;0.60;;;17.30;66.90;;;;;;4994080;28;20478;-73
2022/04/30 12:07:43;;;;;;;0.97;0.90;;;17.30;68.20;;;;;;4994114;28;20441;-74
2022/04/30 12:10:19;;;;;;;1.33;0.77;;;17.10;67.50;;;;;;4994034;28;20520;-74
2022/04/30 12:12:47;;;;;;;0.80;0.80;;;16.90;66.90;;;;;;4994038;28;20433;-74
2022/04/30 12:15:21;;;;;;;0.80;0.80;;;16.60;66.50;;;;;;4993780;28;20539;-75
2022/04/30 12:24:40;;;;;;;0.80;0.80;;;16.50;68.30;;;;;;4994021;28;20487;-74
2022/04/30 12:26:13;;;;;;;0.70;0.70;;;16.60;71.20;;;;;;4993875;28;20495;-75
2022/04/30 12:28:47;;;;;;;0.70;0.70;;;16.70;70.00;;;;;;4994034;28;20472;-74
2022/04/30 12:31:15;;;;;;;0.60;0.60;;;16.60;68.50;;;;;;4993547;28;20831;-74
2022/04/30 12:33:46;;;;;;;0.80;0.80;;;16.50;68.10;;;;;;4993890;28;20543;-74
2022/04/30 12:36:14;;;;;;;0.60;0.60;;;16.30;66.60;;;;;;4993879;28;20454;-74
2022/04/30 12:38:40;;;;;;;0.60;0.60;;;16.10;68.00;;;;;;4993872;28;20539;-75
2022/04/30 12:41:07;;;;;;;0.60;0.60;;;16.10;68.00;;;;;;4993709;28;20910;-76
2022/04/30 12:43:37;;;;;;;0.60;0.50;;;16.00;67.70;;;;;;4994087;28;20984;-76
2022/04/30 12:46:04;;;;;;;0.60;0.60;;;16.10;68.60;;;;;;4994326;28;20924;-76
2022/04/30 12:48:33;;;;;;;0.70;0.60;;;16.30;67.50;;;;;;4995315;28;20528;-75
2022/04/30 12:51:00;;;;;;;0.60;0.60;;;16.40;66.30;;;;;;4994696;28;20445;-78
2022/04/30 12:53:26;;;;;;;0.70;0.70;;;16.30;66.90;;;;;;4994106;28;21047;-76
2022/04/30 12:55:54;;;;;;;0.63;0.60;;;16.10;66.60;;;;;;4994470;28;20461;-76
2022/04/30 12:58:21;;;;;;;0.60;0.60;;;16.00;66.70;;;;;;4993929;28;20448;-76
2022/04/30 13:00:49;;;;;;;0.60;0.50;;;16.00;67.00;;;;;;4994092;28;20568;-76
2022/04/30 13:03:18;;;;;;;0.70;0.60;;;16.20;65.80;;;;;;4993770;28;20548;-75
2022/04/30 13:05:45;;;;;;;0.70;0.70;;;16.30;65.40;;;;;;4995236;28;20504;-76
2022/04/30 13:08:12;;;;;;;0.83;0.60;;;16.40;66.30;;;;;;4998235;28;20825;-76
2022/04/30 13:13:34;;;;;;;0.60;0.60;;;16.50;65.20;;;;;;4998627;28;20971;-76
2022/04/30 13:16:08;;;;;;;0.60;0.60;;;16.50;67.20;;;;;;4999098;28;20455;-76
2022/04/30 13:18:35;;;;;;;0.70;0.60;;;16.60;66.60;;;;;;4998635;28;20858;-76
2022/04/30 13:21:03;;;;;;;0.60;0.60;;;16.60;65.60;;;;;;4998256;28;20488;-77
2022/04/30 13:23:30;;;;;;;0.60;0.60;;;16.60;64.50;;;;;;4998356;28;20481;-76
2022/04/30 13:25:57;;;;;;;0.60;0.60;;;16.80;63.40;;;;;;4998223;28;20445;-76
2022/04/30 13:28:23;;;;;;;0.70;0.70;;;16.90;63.40;;;;;;4997632;28;20445;-75
2022/04/30 13:30:50;;;;;;;0.60;0.60;;;17.10;62.90;;;;;;4997298;28;20453;-75
2022/04/30 13:33:19;;;;;;;0.70;0.70;;;17.30;63.00;;;;;;4997188;28;20504;-76
2022/04/30 13:35:45;;;;;;;0.70;0.70;;;17.30;62.80;;;;;;4998563;28;20576;-76
2022/04/30 13:38:12;;;;;;;0.90;0.90;;;17.30;63.50;;;;;;4998599;28;20448;-75
2022/04/30 13:40:39;;;;;;;0.90;0.90;;;17.50;63.70;;;;;;4998000;28;20953;-75
2022/04/30 13:43:07;;;;;;;0.80;0.80;;;17.50;63.20;;;;;;4998165;28;20453;-75
2022/04/30 13:45:33;;;;;;;0.87;0.87;;;17.80;64.20;;;;;;4998014;28;20507;-75
2022/04/30 13:48:00;;;;;;;0.80;0.80;;;17.90;63.70;;;;;;4997961;28;20453;-75
2022/04/30 13:50:28;;;;;;;0.90;0.90;;;17.90;62.70;;;;;;4997760;28;20449;-75
2022/04/30 13:52:55;;;;;;;0.70;0.70;;;18.10;63.00;;;;;;4997605;28;20471;-75
2022/04/30 13:55:21;;;;;;;0.83;0.83;;;18.20;63.90;;;;;;4997802;28;20468;-75
2022/04/30 13:57:48;;;;;;;0.83;0.83;;;18.40;61.50;;;;;;4997678;28;20503;-75
2022/04/30 14:00:20;;;;;;;0.80;0.80;;;18.40;61.90;;;;;;4997716;28;20445;-75
2022/04/30 14:02:47;;;;;;;0.90;0.90;;;18.30;61.10;;;;;;4998234;28;20469;-75
2022/04/30 14:05:14;;;;;;;0.70;0.70;;;18.10;61.90;;;;;;4997752;28;20477;-75
2022/04/30 14:07:42;;;;;;;0.90;0.90;;;17.80;61.70;;;;;;4997407;28;20452;-75
2022/04/30 14:10:10;;;;;;;0.97;0.97;;;17.80;62.90;;;;;;4997201;28;20457;-74
2022/04/30 14:12:36;;;;;;;1.00;1.00;;;18.00;62.80;;;;;;4997044;28;20866;-74
2022/04/30 14:15:03;;;;;;;0.93;0.93;;;18.30;62.80;;;;;;4997257;28;21004;-75
2022/04/30 14:20:30;;;;;;;0.80;0.80;;;18.40;59.80;;;;;;4956971;29;20443;-75
2022/04/30 14:22:58;;;;;;;1.00;1.00;;;18.30;61.00;;;;;;4956249;29;20486;-75
2022/04/30 14:25:25;;;;;;;0.77;0.70;;;18.20;59.20;;;;;;4974479;28;20564;-75
2022/04/30 14:27:51;;;;;;;0.77;0.77;;;18.10;59.80;;;;;;4997418;28;20941;-75
2022/04/30 14:30:18;;;;;;;0.90;0.90;;;17.90;61.30;;;;;;4997038;28;20873;-75
2022/04/30 14:32:45;;;;;;;1.30;1.20;;;17.50;62.20;;;;;;4997113;28;20508;-75
2022/04/30 14:35:12;;;;;;;0.80;0.80;;;17.00;62.70;;;;;;4997218;28;20973;-74
2022/04/30 14:37:39;;;;;;;1.03;0.97;;;16.80;63.50;;;;;;4996941;28;20986;-73
2022/04/30 14:40:09;;;;;;;1.10;1.00;;;16.60;64.90;;;;;;4996453;28;20449;-75
2022/04/30 14:42:36;;;;;;;1.00;1.00;;;16.40;63.60;;;;;;4996491;28;20495;-76
2022/04/30 14:45:04;;;;;;;0.90;0.90;;;16.10;64.70;;;;;;4995504;28;20825;-75
2022/04/30 14:47:30;;;;;;;0.90;0.90;;;16.10;65.20;;;;;;4996306;28;20452;-76
2022/04/30 14:49:57;;;;;;;0.90;0.90;;;16.20;65.90;;;;;;4996228;28;20504;-75
2022/04/30 14:52:24;;;;;;;0.90;0.90;;;16.40;66.00;;;;;;4996225;28;20454;-73
2022/04/30 14:54:51;;;;;;;0.80;0.80;;;16.40;65.30;;;;;;4995225;28;20473;-75
2022/04/30 14:57:20;;;;;;;0.80;0.80;;;16.20;66.40;;;;;;4994972;28;20459;-75
2022/04/30 14:59:46;;;;;;;0.73;0.73;;;16.00;65.90;;;;;;4995259;28;20476;-75
2022/04/30 15:02:13;;;;;;;1.00;1.00;;;15.90;66.10;;;;;;4995069;28;20477;-74
2022/04/30 15:04:39;;;;;;;0.80;0.80;;;15.90;66.30;;;;;;4994848;28;20894;-74
2022/04/30 15:07:06;;;;;;;0.90;0.90;;;15.70;66.50;;;;;;4995211;28;20496;-73
2022/04/30 15:09:33;;;;;;;1.30;0.90;;;15.60;67.20;;;;;;4995013;28;20441;-74
2022/04/30 15:11:59;;;;;;;1.00;1.00;;;15.60;67.60;;;;;;4994964;28;20441;-75
2022/04/30 15:14:40;;;;;;;0.80;0.80;;;15.50;68.80;;;;;;4994774;28;20492;-75
2022/04/30 15:17:07;;;;;;;0.80;0.80;;;15.30;69.20;;;;;;4994675;28;20946;-75
2022/04/30 15:19:34;;;;;;;1.10;1.10;;;15.20;69.00;;;;;;4994837;28;20445;-74
2022/04/30 15:22:01;;;;;;;1.67;1.03;;;15.20;69.00;;;;;;4994782;28;20484;-74
2022/04/30 15:24:27;;;;;;;1.37;0.90;;;15.20;69.60;;;;;;4994642;28;20556;-74
2022/04/30 15:26:54;;;;;;;1.07;1.07;;;15.30;69.30;;;;;;4994816;28;20508;-74
2022/04/30 15:29:22;;;;;;;0.83;0.83;;;15.40;69.20;;;;;;4994202;28;20449;-74
2022/04/30 15:31:50;;;;;;;1.00;1.00;;;15.30;69.80;;;;;;4994716;28;20450;-75
2022/04/30 15:34:17;;;;;;;1.03;1.03;;;15.50;69.70;;;;;;4994632;28;20479;-75
2022/04/30 15:36:43;;;;;;;1.00;1.00;;;15.60;69.60;;;;;;4994568;28;20465;-75
2022/04/30 15:39:10;;;;;;;0.90;0.90;;;15.70;68.60;;;;;;4994620;28;20796;-75
2022/04/30 15:41:37;;;;;;;1.00;1.00;;;16.00;68.60;;;;;;4994093;28;21086;-75
2022/04/30 15:44:03;;;;;;;0.97;0.97;;;16.00;65.50;;;;;;4994414;28;20473;-75
2022/04/30 15:52:01;;;;;;;0.90;0.90;;;15.60;66.60;;;;;;4994659;28;20413;-74
2022/04/30 15:54:30;;;;;;;1.07;1.07;;;15.60;66.90;;;;;;4994208;28;20465;-74
2022/04/30 15:56:57;;;;;;;0.80;0.80;;;15.70;67.20;;;;;;4994356;28;20503;-74
2022/04/30 15:59:25;;;;;;;1.07;1.00;;;15.80;66.00;;;;;;4994427;28;20446;-75
2022/04/30 16:01:51;;;;;;;1.00;1.00;;;15.80;65.90;;;;;;4994202;28;20485;-74
2022/04/30 16:04:19;;;;;;;0.90;0.90;;;15.80;66.50;;;;;;4994054;28;20881;-75
2022/04/30 16:06:46;;;;;;;0.90;0.90;;;16.00;65.40;;;;;;4993865;28;20869;-74
2022/04/30 16:09:13;;;;;;;1.00;1.00;;;16.00;64.90;;;;;;4994173;28;20441;-74
2022/04/30 16:11:39;;;;;;;0.80;0.80;;;16.10;64.10;;;;;;4994118;28;20445;-74
2022/04/30 16:14:06;;;;;;;0.77;0.77;;;16.00;64.00;;;;;;4993927;28;20481;-75
2022/04/30 16:16:34;;;;;;;0.80;0.80;;;15.80;64.90;;;;;;4994027;28;20948;-75
2022/04/30 16:19:01;;;;;;;1.10;0.90;;;15.60;65.70;;;;;;4993994;28;20507;-76
2022/04/30 16:21:29;;;;;;;0.87;0.87;;;15.50;65.80;;;;;;4993644;28;20945;-75
2022/04/30 16:23:56;;;;;;;0.80;0.80;;;15.40;66.30;;;;;;4993963;28;20569;-76
2022/04/30 16:26:23;;;;;;;0.87;0.87;;;15.30;66.30;;;;;;4993949;28;20991;-71
2022/04/30 16:28:50;;;;;;;0.87;0.87;;;15.20;66.90;;;;;;4993988;28;20857;-72
2022/04/30 16:31:17;;;;;;;0.80;0.80;;;15.20;66.50;;;;;;4993995;28;20456;-72
2022/04/30 16:33:43;;;;;;;1.20;0.80;;;15.10;67.00;;;;;;4993948;28;20525;-72
2022/04/30 16:36:10;;;;;;;0.97;0.90;;;15.10;67.40;;;;;;4994087;28;20507;-77